sensor_id;sensor_type;location;lat;lon;timestamp;temperature;humidity
20231;DHT22;10274;49.022;9.338;2023-03-01T00:02:15;1.20;99.90
20231;DHT22;10274;49.022;9.338;2023-03-01T00:04:42;1.20;99.90
20231;DHT22;10274;49.022;9.338;2023-03-01T00:07:10;1.20;99.90
20231;DHT22;10274;49.022;9.338;2023-03-01T00:09:37;1.10;99.90
20231;DHT22;10274;49.022;9.338;2023-03-01T00:12:06;1.10;99.90
20231;DHT22;10274;49.022;9.338;2023-03-01T00:14:32;1.10;1.00
20231;DHT22;10274;49.022;9.338;2023-03-01T00:16:59;1.00;1.00
20231;DHT22;10274;49.022;9.338;2023-03-01T00:19:27;1.10;99.90
20231;DHT22;10274;49.022;9.338;2023-03-01T00:21:54;1.10;99.90
20231;DHT22;10274;49.022;9.338;2023-03-01T00:24:22;1.00;1.00
20231;DHT22;10274;49.022;9.338;2023-03-01T00:26:48;1.00;99.90
20231;DHT22;10274;49.022;9.338;2023-03-01T00:29:18;1.10;99.90
20231;DHT22;10274;49.022;9.338;2023-03-01T00:31:45;1.00;1.00
20231;DHT22;10274;49.022;9.338;2023-03-01T00:34:12;1.00;1.00
20231;DHT22;10274;49.022;9.338;2023-03-01T00:36:38;0.90;1.00
20231;DHT22;10274;49.022;9.338;2023-03-01T00:39:09;1.00;1.00
20231;DHT22;10274;49.022;9.338;2023-03-01T00:41:38;1.00;1.00
20231;DHT22;10274;49.022;9.338;2023-03-01T00:44:05;1.00;99.90
20231;DHT22;10274;49.022;9.338;2023-03-01T00:46:32;1.00;99.90
20231;DHT22;10274;49.022;9.338;2023-03-01T00:48:59;1.00;99.90
20231;DHT22;10274;49.022;9.338;2023-03-01T00:51:28;1.00;99.90
20231;DHT22;10274;49.022;9.338;2023-03-01T00:53:56;0.90;1.00
20231;DHT22;10274;49.022;9.338;2023-03-01T00:56:24;0.90;99.90
20231;DHT22;10274;49.022;9.338;2023-03-01T00:58:52;1.00;99.90
20231;DHT22;10274;49.022;9.338;2023-03-01T01:01:21;0.90;1.00
20231;DHT22;10274;49.022;9.338;2023-03-01T01:03:50;0.90;1.00
20231;DHT22;10274;49.022;9.338;2023-03-01T01:06:19;0.90;1.00
20231;DHT22;10274;49.022;9.338;2023-03-01T01:08:46;0.90;1.00
20231;DHT22;10274;49.022;9.338;2023-03-01T01:11:14;0.80;1.00
20231;DHT22;10274;49.022;9.338;2023-03-01T01:13:41;0.80;1.00
20231;DHT22;10274;49.022;9.338;2023-03-01T01:16:09;0.80;1.00
20231;DHT22;10274;49.022;9.338;2023-03-01T01:18:36;0.80;1.00
20231;DHT22;10274;49.022;9.338;2023-03-01T01:21:04;0.70;1.00
20231;DHT22;10274;49.022;9.338;2023-03-01T01:23:32;0.70;1.00
20231;DHT22;10274;49.022;9.338;2023-03-01T01:26:03;0.70;1.00
20231;DHT22;10274;49.022;9.338;2023-03-01T01:28:30;0.70;1.00
20231;DHT22;10274;49.022;9.338;2023-03-01T01:30:57;0.80;1.00
20231;DHT22;10274;49.022;9.338;2023-03-01T01:33:25;0.80;1.00
20231;DHT22;10274;49.022;9.338;2023-03-01T01:35:52;0.70;1.00
20231;DHT22;10274;49.022;9.338;2023-03-01T01:38:19;0.80;1.00
20231;DHT22;10274;49.022;9.338;2023-03-01T01:40:47;0.80;1.00
20231;DHT22;10274;49.022;9.338;2023-03-01T01:43:19;0.70;1.00
20231;DHT22;10274;49.022;9.338;2023-03-01T01:45:46;0.70;1.00
20231;DHT22;10274;49.022;9.338;2023-03-01T01:48:18;0.70;1.00
20231;DHT22;10274;49.022;9.338;2023-03-01T01:50:52;0.70;1.00
20231;DHT22;10274;49.022;9.338;2023-03-01T01:53:21;0.70;1.00
20231;DHT22;10274;49.022;9.338;2023-03-01T01:55:51;0.70;1.00
20231;DHT22;10274;49.022;9.338;2023-03-01T01:58:21;0.70;1.00
20231;DHT22;10274;49.022;9.338;2023-03-01T02:00:48;0.70;1.00
20231;DHT22;10274;49.022;9.338;2023-03-01T02:03:17;0.70;1.00
20231;DHT22;10274;49.022;9.338;2023-03-01T02:05:49;0.80;1.00
20231;DHT22;10274;49.022;9.338;2023-03-01T02:08:19;0.70;1.00
20231;DHT22;10274;49.022;9.338;2023-03-01T02:10:48;0.70;1.00
20231;DHT22;10274;49.022;9.338;2023-03-01T02:13:15;0.70;1.00
20231;DHT22;10274;49.022;9.338;2023-03-01T02:15:42;0.70;1.00
20231;DHT22;10274;49.022;9.338;2023-03-01T02:18:11;0.70;1.00
20231;DHT22;10274;49.022;9.338;2023-03-01T02:20:48;0.70;1.00
20231;DHT22;10274;49.022;9.338;2023-03-01T02:23:17;0.80;1.00
20231;DHT22;10274;49.022;9.338;2023-03-01T02:25:50;0.70;1.00
20231;DHT22;10274;49.022;9.338;2023-03-01T02:28:24;0.80;4.10
20231;DHT22;10274;49.022;9.338;2023-03-01T02:30:51;0.80;1.00
20231;DHT22;10274;49.022;9.338;2023-03-01T02:33:38;0.80;1.00
20231;DHT22;10274;49.022;9.338;2023-03-01T02:36:08;0.80;1.00
20231;DHT22;10274;49.022;9.338;2023-03-01T02:38:36;0.80;1.00
20231;DHT22;10274;49.022;9.338;2023-03-01T02:41:04;0.80;1.00
20231;DHT22;10274;49.022;9.338;2023-03-01T02:43:34;0.90;1.00
20231;DHT22;10274;49.022;9.338;2023-03-01T02:46:05;0.90;1.00
20231;DHT22;10274;49.022;9.338;2023-03-01T02:48:43;0.80;1.00
20231;DHT22;10274;49.022;9.338;2023-03-01T02:54:05;0.90;1.00
20231;DHT22;10274;49.022;9.338;2023-03-01T02:56:34;0.90;1.00
20231;DHT22;10274;49.022;9.338;2023-03-01T02:59:03;0.90;1.00
20231;DHT22;10274;49.022;9.338;2023-03-01T03:01:30;0.90;1.00
20231;DHT22;10274;49.022;9.338;2023-03-01T03:04:04;0.90;1.00
20231;DHT22;10274;49.022;9.338;2023-03-01T03:06:30;0.90;1.00
20231;DHT22;10274;49.022;9.338;2023-03-01T03:08:57;0.90;1.00
20231;DHT22;10274;49.022;9.338;2023-03-01T03:11:24;1.00;1.00
20231;DHT22;10274;49.022;9.338;2023-03-01T03:13:51;1.00;1.00
20231;DHT22;10274;49.022;9.338;2023-03-01T03:16:19;0.90;1.00
20231;DHT22;10274;49.022;9.338;2023-03-01T03:18:46;0.90;1.00
20231;DHT22;10274;49.022;9.338;2023-03-01T03:21:13;0.90;1.00
20231;DHT22;10274;49.022;9.338;2023-03-01T03:23:39;0.90;1.00
20231;DHT22;10274;49.022;9.338;2023-03-01T03:26:06;0.90;1.00
20231;DHT22;10274;49.022;9.338;2023-03-01T03:28:34;1.00;1.00
20231;DHT22;10274;49.022;9.338;2023-03-01T03:31:01;1.00;1.00
20231;DHT22;10274;49.022;9.338;2023-03-01T03:33:30;0.90;1.00
20231;DHT22;10274;49.022;9.338;2023-03-01T03:35:57;0.90;1.00
20231;DHT22;10274;49.022;9.338;2023-03-01T03:38:24;0.90;1.00
20231;DHT22;10274;49.022;9.338;2023-03-01T03:40:59;0.90;1.00
20231;DHT22;10274;49.022;9.338;2023-03-01T03:43:28;0.90;1.00
20231;DHT22;10274;49.022;9.338;2023-03-01T03:45:55;0.80;1.00
20231;DHT22;10274;49.022;9.338;2023-03-01T03:48:23;0.80;1.00
20231;DHT22;10274;49.022;9.338;2023-03-01T03:50:53;0.80;1.00
20231;DHT22;10274;49.022;9.338;2023-03-01T03:53:21;0.70;1.00
20231;DHT22;10274;49.022;9.338;2023-03-01T03:55:48;0.70;1.00
20231;DHT22;10274;49.022;9.338;2023-03-01T03:58:18;0.70;99.90
20231;DHT22;10274;49.022;9.338;2023-03-01T04:00:47;0.60;99.90
20231;DHT22;10274;49.022;9.338;2023-03-01T04:03:17;0.70;99.90
20231;DHT22;10274;49.022;9.338;2023-03-01T04:05:45;0.60;1.00
20231;DHT22;10274;49.022;9.338;2023-03-01T04:08:14;0.70;17.80
20231;DHT22;10274;49.022;9.338;2023-03-01T04:10:43;0.60;92.30
20231;DHT22;10274;49.022;9.338;2023-03-01T04:13:11;0.60;99.90
20231;DHT22;10274;49.022;9.338;2023-03-01T04:15:39;0.60;99.90
20231;DHT22;10274;49.022;9.338;2023-03-01T04:18:06;0.60;99.90
20231;DHT22;10274;49.022;9.338;2023-03-01T04:20:34;0.60;99.90
20231;DHT22;10274;49.022;9.338;2023-03-01T04:23:02;0.60;99.90
20231;DHT22;10274;49.022;9.338;2023-03-01T04:25:37;0.50;99.90
20231;DHT22;10274;49.022;9.338;2023-03-01T04:28:04;0.50;99.90
20231;DHT22;10274;49.022;9.338;2023-03-01T04:30:31;0.50;99.90
20231;DHT22;10274;49.022;9.338;2023-03-01T04:33:02;0.40;99.90
20231;DHT22;10274;49.022;9.338;2023-03-01T04:35:30;0.40;99.90
20231;DHT22;10274;49.022;9.338;2023-03-01T04:37:57;0.40;99.90
20231;DHT22;10274;49.022;9.338;2023-03-01T04:40:24;0.40;1.00
20231;DHT22;10274;49.022;9.338;2023-03-01T04:42:52;0.30;1.00
20231;DHT22;10274;49.022;9.338;2023-03-01T04:45:19;0.30;1.00
20231;DHT22;10274;49.022;9.338;2023-03-01T04:47:46;0.30;1.00
20231;DHT22;10274;49.022;9.338;2023-03-01T04:50:15;0.20;99.90
20231;DHT22;10274;49.022;9.338;2023-03-01T04:52:44;0.20;99.90
20231;DHT22;10274;49.022;9.338;2023-03-01T04:55:11;0.20;1.00
20231;DHT22;10274;49.022;9.338;2023-03-01T04:57:38;0.20;99.90
20231;DHT22;10274;49.022;9.338;2023-03-01T05:00:10;0.20;99.90
20231;DHT22;10274;49.022;9.338;2023-03-01T05:02:47;0.20;1.00
20231;DHT22;10274;49.022;9.338;2023-03-01T05:05:19;0.20;1.00
20231;DHT22;10274;49.022;9.338;2023-03-01T05:07:46;0.20;1.00
20231;DHT22;10274;49.022;9.338;2023-03-01T05:10:13;0.10;1.00
20231;DHT22;10274;49.022;9.338;2023-03-01T05:12:39;0.10;1.00
20231;DHT22;10274;49.022;9.338;2023-03-01T05:15:08;0.00;1.00
20231;DHT22;10274;49.022;9.338;2023-03-01T05:17:35;0.10;1.00
20231;DHT22;10274;49.022;9.338;2023-03-01T05:20:02;0.00;1.00
20231;DHT22;10274;49.022;9.338;2023-03-01T05:22:32;0.00;99.90
20231;DHT22;10274;49.022;9.338;2023-03-01T05:24:59;0.00;99.90
20231;DHT22;10274;49.022;9.338;2023-03-01T05:27:25;-0.10;99.90
20231;DHT22;10274;49.022;9.338;2023-03-01T05:29:52;-0.20;1.00
20231;DHT22;10274;49.022;9.338;2023-03-01T05:32:20;-0.20;1.00
20231;DHT22;10274;49.022;9.338;2023-03-01T05:34:47;-0.20;1.00
20231;DHT22;10274;49.022;9.338;2023-03-01T05:37:13;-0.20;1.00
20231;DHT22;10274;49.022;9.338;2023-03-01T05:39:40;-0.20;30.40
20231;DHT22;10274;49.022;9.338;2023-03-01T05:42:11;-0.20;1.00
20231;DHT22;10274;49.022;9.338;2023-03-01T05:44:38;-0.20;1.00
20231;DHT22;10274;49.022;9.338;2023-03-01T05:47:04;-0.20;34.60
20231;DHT22;10274;49.022;9.338;2023-03-01T05:49:33;-0.10;1.00
20231;DHT22;10274;49.022;9.338;2023-03-01T05:52:00;-0.10;1.00
20231;DHT22;10274;49.022;9.338;2023-03-01T05:54:26;0.00;1.00
20231;DHT22;10274;49.022;9.338;2023-03-01T05:56:53;0.00;1.00
20231;DHT22;10274;49.022;9.338;2023-03-01T05:59:20;0.00;99.90
20231;DHT22;10274;49.022;9.338;2023-03-01T06:01:46;0.10;99.90
20231;DHT22;10274;49.022;9.338;2023-03-01T06:04:13;0.10;74.10
20231;DHT22;10274;49.022;9.338;2023-03-01T06:06:41;0.10;1.00
20231;DHT22;10274;49.022;9.338;2023-03-01T06:09:08;0.20;15.00
20231;DHT22;10274;49.022;9.338;2023-03-01T06:11:35;0.20;99.90
20231;DHT22;10274;49.022;9.338;2023-03-01T06:14:03;0.20;1.00
20231;DHT22;10274;49.022;9.338;2023-03-01T06:16:31;0.20;1.00
20231;DHT22;10274;49.022;9.338;2023-03-01T06:18:58;0.20;1.00
20231;DHT22;10274;49.022;9.338;2023-03-01T06:21:25;0.20;1.00
20231;DHT22;10274;49.022;9.338;2023-03-01T06:23:53;0.20;1.00
20231;DHT22;10274;49.022;9.338;2023-03-01T06:26:19;0.20;1.00
20231;DHT22;10274;49.022;9.338;2023-03-01T06:28:46;0.30;1.00
20231;DHT22;10274;49.022;9.338;2023-03-01T06:31:13;0.20;1.00
20231;DHT22;10274;49.022;9.338;2023-03-01T06:33:39;0.20;1.00
20231;DHT22;10274;49.022;9.338;2023-03-01T06:36:07;0.20;1.00
20231;DHT22;10274;49.022;9.338;2023-03-01T06:38:35;0.20;1.00
20231;DHT22;10274;49.022;9.338;2023-03-01T06:41:03;0.20;99.90
20231;DHT22;10274;49.022;9.338;2023-03-01T06:43:30;0.20;1.00
20231;DHT22;10274;49.022;9.338;2023-03-01T06:45:57;0.20;1.00
20231;DHT22;10274;49.022;9.338;2023-03-01T06:48:24;0.20;99.90
20231;DHT22;10274;49.022;9.338;2023-03-01T06:50:50;0.20;99.90
20231;DHT22;10274;49.022;9.338;2023-03-01T06:53:17;0.20;99.90
20231;DHT22;10274;49.022;9.338;2023-03-01T06:55:43;0.30;1.00
20231;DHT22;10274;49.022;9.338;2023-03-01T06:58:11;0.30;99.90
20231;DHT22;10274;49.022;9.338;2023-03-01T07:00:38;0.40;99.90
20231;DHT22;10274;49.022;9.338;2023-03-01T07:03:06;0.30;99.90
20231;DHT22;10274;49.022;9.338;2023-03-01T07:05:33;0.40;99.90
20231;DHT22;10274;49.022;9.338;2023-03-01T07:08:00;0.40;42.40
20231;DHT22;10274;49.022;9.338;2023-03-01T07:10:27;0.40;1.00
20231;DHT22;10274;49.022;9.338;2023-03-01T07:12:55;0.40;1.00
20231;DHT22;10274;49.022;9.338;2023-03-01T07:15:23;0.60;1.00
20231;DHT22;10274;49.022;9.338;2023-03-01T07:17:50;0.80;1.00
20231;DHT22;10274;49.022;9.338;2023-03-01T07:20:18;1.00;99.90
20231;DHT22;10274;49.022;9.338;2023-03-01T07:22:47;1.20;1.00
20231;DHT22;10274;49.022;9.338;2023-03-01T07:25:14;1.40;1.00
20231;DHT22;10274;49.022;9.338;2023-03-01T07:27:41;1.50;99.90
20231;DHT22;10274;49.022;9.338;2023-03-01T07:30:09;1.50;9.50
20231;DHT22;10274;49.022;9.338;2023-03-01T07:32:37;1.60;1.00
20231;DHT22;10274;49.022;9.338;2023-03-01T07:35:04;1.80;1.00
20231;DHT22;10274;49.022;9.338;2023-03-01T07:37:31;1.90;99.90
20231;DHT22;10274;49.022;9.338;2023-03-01T07:39:58;2.00;1.00
20231;DHT22;10274;49.022;9.338;2023-03-01T07:42:24;2.10;1.00
20231;DHT22;10274;49.022;9.338;2023-03-01T07:44:51;2.10;1.00
20231;DHT22;10274;49.022;9.338;2023-03-01T07:47:18;2.20;1.00
20231;DHT22;10274;49.022;9.338;2023-03-01T07:49:46;2.40;1.00
20231;DHT22;10274;49.022;9.338;2023-03-01T07:52:13;2.50;99.90
20231;DHT22;10274;49.022;9.338;2023-03-01T07:54:42;2.80;99.90
20231;DHT22;10274;49.022;9.338;2023-03-01T07:57:09;2.90;58.30
20231;DHT22;10274;49.022;9.338;2023-03-01T07:59:36;3.10;1.00
20231;DHT22;10274;49.022;9.338;2023-03-01T08:02:03;3.30;1.00
20231;DHT22;10274;49.022;9.338;2023-03-01T08:04:29;3.40;1.00
20231;DHT22;10274;49.022;9.338;2023-03-01T08:06:57;3.50;1.00
20231;DHT22;10274;49.022;9.338;2023-03-01T08:09:24;3.70;99.90
20231;DHT22;10274;49.022;9.338;2023-03-01T08:11:51;4.10;99.90
20231;DHT22;10274;49.022;9.338;2023-03-01T08:14:19;3.80;99.90
20231;DHT22;10274;49.022;9.338;2023-03-01T08:16:49;4.10;99.90
20231;DHT22;10274;49.022;9.338;2023-03-01T08:19:15;4.50;5.40
20231;DHT22;10274;49.022;9.338;2023-03-01T08:21:42;4.60;1.00
20231;DHT22;10274;49.022;9.338;2023-03-01T08:24:10;4.90;1.00
20231;DHT22;10274;49.022;9.338;2023-03-01T08:26:37;5.30;1.00
20231;DHT22;10274;49.022;9.338;2023-03-01T08:29:03;6.80;1.00
20231;DHT22;10274;49.022;9.338;2023-03-01T08:31:33;6.70;99.90
20231;DHT22;10274;49.022;9.338;2023-03-01T08:34:02;5.90;99.90
20231;DHT22;10274;49.022;9.338;2023-03-01T08:36:30;5.80;99.90
20231;DHT22;10274;49.022;9.338;2023-03-01T08:38:58;6.30;99.90
20231;DHT22;10274;49.022;9.338;2023-03-01T08:41:26;6.40;99.90
20231;DHT22;10274;49.022;9.338;2023-03-01T08:43:53;7.10;99.90
20231;DHT22;10274;49.022;9.338;2023-03-01T08:46:24;7.10;99.90
20231;DHT22;10274;49.022;9.338;2023-03-01T08:48:50;6.50;99.90
20231;DHT22;10274;49.022;9.338;2023-03-01T08:51:18;6.60;99.90
20231;DHT22;10274;49.022;9.338;2023-03-01T08:53:46;6.90;99.90
20231;DHT22;10274;49.022;9.338;2023-03-01T08:56:13;7.20;99.90
20231;DHT22;10274;49.022;9.338;2023-03-01T08:58:43;7.00;99.90
20231;DHT22;10274;49.022;9.338;2023-03-01T09:01:11;7.70;99.90
20231;DHT22;10274;49.022;9.338;2023-03-01T09:03:38;7.30;99.90
20231;DHT22;10274;49.022;9.338;2023-03-01T09:06:06;7.10;99.90
20231;DHT22;10274;49.022;9.338;2023-03-01T09:08:34;7.80;99.90
20231;DHT22;10274;49.022;9.338;2023-03-01T09:11:01;7.60;99.90
20231;DHT22;10274;49.022;9.338;2023-03-01T09:13:28;8.20;99.90
20231;DHT22;10274;49.022;9.338;2023-03-01T09:15:58;8.40;99.90
20231;DHT22;10274;49.022;9.338;2023-03-01T09:18:24;8.50;99.90
20231;DHT22;10274;49.022;9.338;2023-03-01T09:20:51;8.70;99.90
20231;DHT22;10274;49.022;9.338;2023-03-01T09:23:20;8.50;99.90
20231;DHT22;10274;49.022;9.338;2023-03-01T09:25:47;9.40;97.50
20231;DHT22;10274;49.022;9.338;2023-03-01T09:28:13;10.00;24.80
20231;DHT22;10274;49.022;9.338;2023-03-01T09:30:40;9.90;11.20
20231;DHT22;10274;49.022;9.338;2023-03-01T09:33:08;10.00;6.80
20231;DHT22;10274;49.022;9.338;2023-03-01T09:35:40;9.40;1.00
20231;DHT22;10274;49.022;9.338;2023-03-01T09:38:11;10.40;1.00
20231;DHT22;10274;49.022;9.338;2023-03-01T09:40:42;11.20;1.00
20231;DHT22;10274;49.022;9.338;2023-03-01T09:43:18;11.50;1.00
20231;DHT22;10274;49.022;9.338;2023-03-01T09:45:48;9.70;1.00
20231;DHT22;10274;49.022;9.338;2023-03-01T09:48:19;11.50;1.00
20231;DHT22;10274;49.022;9.338;2023-03-01T09:50:49;12.20;1.00
20231;DHT22;10274;49.022;9.338;2023-03-01T09:53:18;12.70;1.00
20231;DHT22;10274;49.022;9.338;2023-03-01T09:55:49;10.70;1.00
20231;DHT22;10274;49.022;9.338;2023-03-01T09:58:31;11.70;1.00
20231;DHT22;10274;49.022;9.338;2023-03-01T10:01:05;13.20;1.00
20231;DHT22;10274;49.022;9.338;2023-03-01T10:03:42;11.90;1.00
20231;DHT22;10274;49.022;9.338;2023-03-01T10:06:14;12.20;1.00
20231;DHT22;10274;49.022;9.338;2023-03-01T10:08:45;12.80;1.00
20231;DHT22;10274;49.022;9.338;2023-03-01T10:11:20;12.60;1.00
20231;DHT22;10274;49.022;9.338;2023-03-01T10:13:54;12.20;1.00
20231;DHT22;10274;49.022;9.338;2023-03-01T10:16:24;13.20;1.00
20231;DHT22;10274;49.022;9.338;2023-03-01T10:18:55;13.50;1.00
20231;DHT22;10274;49.022;9.338;2023-03-01T10:21:27;13.50;1.00
20231;DHT22;10274;49.022;9.338;2023-03-01T10:23:57;13.40;1.00
20231;DHT22;10274;49.022;9.338;2023-03-01T10:26:36;13.20;1.00
20231;DHT22;10274;49.022;9.338;2023-03-01T10:29:07;12.80;1.00
20231;DHT22;10274;49.022;9.338;2023-03-01T10:31:39;12.70;1.00
20231;DHT22;10274;49.022;9.338;2023-03-01T10:34:11;11.90;1.00
20231;DHT22;10274;49.022;9.338;2023-03-01T10:36:39;13.00;1.00
20231;DHT22;10274;49.022;9.338;2023-03-01T10:39:12;11.70;1.00
20231;DHT22;10274;49.022;9.338;2023-03-01T10:41:52;12.00;1.00
20231;DHT22;10274;49.022;9.338;2023-03-01T10:44:40;13.00;1.00
20231;DHT22;10274;49.022;9.338;2023-03-01T10:47:18;11.30;1.00
20231;DHT22;10274;49.022;9.338;2023-03-01T10:49:55;12.40;1.00
20231;DHT22;10274;49.022;9.338;2023-03-01T10:52:24;11.20;1.00
20231;DHT22;10274;49.022;9.338;2023-03-01T10:54:53;12.00;1.00
20231;DHT22;10274;49.022;9.338;2023-03-01T10:57:34;12.90;1.00
20231;DHT22;10274;49.022;9.338;2023-03-01T11:00:22;13.30;1.00
20231;DHT22;10274;49.022;9.338;2023-03-01T11:03:00;14.00;1.00
20231;DHT22;10274;49.022;9.338;2023-03-01T11:05:29;14.00;1.00
20231;DHT22;10274;49.022;9.338;2023-03-01T11:08:00;13.40;1.00
20231;DHT22;10274;49.022;9.338;2023-03-01T11:10:28;13.90;1.00
20231;DHT22;10274;49.022;9.338;2023-03-01T11:13:07;13.60;1.00
20231;DHT22;10274;49.022;9.338;2023-03-01T11:15:33;12.90;1.00
20231;DHT22;10274;49.022;9.338;2023-03-01T11:18:00;12.10;1.00
20231;DHT22;10274;49.022;9.338;2023-03-01T11:20:32;11.50;1.00
20231;DHT22;10274;49.022;9.338;2023-03-01T11:23:02;13.20;1.00
20231;DHT22;10274;49.022;9.338;2023-03-01T11:25:34;13.40;1.00
20231;DHT22;10274;49.022;9.338;2023-03-01T11:28:04;12.90;1.00
20231;DHT22;10274;49.022;9.338;2023-03-01T11:30:33;12.90;1.00
20231;DHT22;10274;49.022;9.338;2023-03-01T11:33:11;12.80;1.00
20231;DHT22;10274;49.022;9.338;2023-03-01T11:35:46;13.40;1.00
20231;DHT22;10274;49.022;9.338;2023-03-01T11:38:22;13.50;1.00
20231;DHT22;10274;49.022;9.338;2023-03-01T11:40:53;13.60;1.00
20231;DHT22;10274;49.022;9.338;2023-03-01T11:43:28;13.80;1.00
20231;DHT22;10274;49.022;9.338;2023-03-01T11:48:54;14.20;1.00
20231;DHT22;10274;49.022;9.338;2023-03-01T11:51:40;12.60;1.00
20231;DHT22;10274;49.022;9.338;2023-03-01T11:54:15;12.60;1.00
20231;DHT22;10274;49.022;9.338;2023-03-01T11:56:47;13.80;1.00
20231;DHT22;10274;49.022;9.338;2023-03-01T11:59:52;12.80;1.00
20231;DHT22;10274;49.022;9.338;2023-03-01T12:02:41;13.20;1.00
20231;DHT22;10274;49.022;9.338;2023-03-01T12:05:27;13.90;1.00
20231;DHT22;10274;49.022;9.338;2023-03-01T12:08:05;13.70;1.00
20231;DHT22;10274;49.022;9.338;2023-03-01T12:10:37;13.70;1.00
20231;DHT22;10274;49.022;9.338;2023-03-01T12:13:22;13.10;1.00
20231;DHT22;10274;49.022;9.338;2023-03-01T12:16:06;13.20;1.00
20231;DHT22;10274;49.022;9.338;2023-03-01T12:19:01;13.90;1.00
20231;DHT22;10274;49.022;9.338;2023-03-01T12:21:41;13.30;1.00
20231;DHT22;10274;49.022;9.338;2023-03-01T12:24:35;12.30;1.00
20231;DHT22;10274;49.022;9.338;2023-03-01T12:27:17;12.90;1.00
20231;DHT22;10274;49.022;9.338;2023-03-01T12:29:50;13.20;1.00
20231;DHT22;10274;49.022;9.338;2023-03-01T12:32:28;13.90;1.00
20231;DHT22;10274;49.022;9.338;2023-03-01T12:35:11;14.20;1.00
20231;DHT22;10274;49.022;9.338;2023-03-01T12:37:54;13.50;1.00
20231;DHT22;10274;49.022;9.338;2023-03-01T12:41:00;13.10;1.00
20231;DHT22;10274;49.022;9.338;2023-03-01T12:43:36;12.80;1.00
20231;DHT22;10274;49.022;9.338;2023-03-01T12:46:14;13.10;1.00
20231;DHT22;10274;49.022;9.338;2023-03-01T12:48:47;13.00;1.00
20231;DHT22;10274;49.022;9.338;2023-03-01T12:51:20;12.70;1.00
20231;DHT22;10274;49.022;9.338;2023-03-01T12:53:50;13.20;1.00
20231;DHT22;10274;49.022;9.338;2023-03-01T12:56:21;13.00;1.00
20231;DHT22;10274;49.022;9.338;2023-03-01T12:58:57;13.00;1.00
20231;DHT22;10274;49.022;9.338;2023-03-01T13:01:33;12.40;1.00
20231;DHT22;10274;49.022;9.338;2023-03-01T13:04:15;11.30;1.00
20231;DHT22;10274;49.022;9.338;2023-03-01T13:06:50;12.10;1.00
20231;DHT22;10274;49.022;9.338;2023-03-01T13:09:25;13.00;1.00
20231;DHT22;10274;49.022;9.338;2023-03-01T13:11:57;13.10;1.00
20231;DHT22;10274;49.022;9.338;2023-03-01T13:14:42;13.70;1.00
20231;DHT22;10274;49.022;9.338;2023-03-01T13:17:29;14.00;1.00
20231;DHT22;10274;49.022;9.338;2023-03-01T13:19:57;13.80;1.00
20231;DHT22;10274;49.022;9.338;2023-03-01T13:22:30;13.30;1.00
20231;DHT22;10274;49.022;9.338;2023-03-01T13:25:03;15.00;1.00
20231;DHT22;10274;49.022;9.338;2023-03-01T13:27:39;15.40;1.00
20231;DHT22;10274;49.022;9.338;2023-03-01T13:30:40;15.60;1.00
20231;DHT22;10274;49.022;9.338;2023-03-01T13:33:39;14.40;1.00
20231;DHT22;10274;49.022;9.338;2023-03-01T13:36:07;14.00;1.00
20231;DHT22;10274;49.022;9.338;2023-03-01T13:38:38;14.60;1.00
20231;DHT22;10274;49.022;9.338;2023-03-01T13:41:07;15.00;1.00
20231;DHT22;10274;49.022;9.338;2023-03-01T13:43:37;15.00;1.00
20231;DHT22;10274;49.022;9.338;2023-03-01T13:46:09;16.10;1.00
20231;DHT22;10274;49.022;9.338;2023-03-01T13:48:38;16.40;1.00
20231;DHT22;10274;49.022;9.338;2023-03-01T13:51:07;15.60;1.00
20231;DHT22;10274;49.022;9.338;2023-03-01T13:53:37;14.70;1.00
20231;DHT22;10274;49.022;9.338;2023-03-01T13:56:08;15.20;1.00
20231;DHT22;10274;49.022;9.338;2023-03-01T13:58:50;15.20;1.00
20231;DHT22;10274;49.022;9.338;2023-03-01T14:01:23;14.80;1.00
20231;DHT22;10274;49.022;9.338;2023-03-01T14:03:50;15.70;1.00
20231;DHT22;10274;49.022;9.338;2023-03-01T14:06:20;15.60;1.00
20231;DHT22;10274;49.022;9.338;2023-03-01T14:08:50;15.90;1.00
20231;DHT22;10274;49.022;9.338;2023-03-01T14:12:02;16.50;1.00
20231;DHT22;10274;49.022;9.338;2023-03-01T14:14:59;16.10;1.00
20231;DHT22;10274;49.022;9.338;2023-03-01T14:20:39;15.30;1.00
20231;DHT22;10274;49.022;9.338;2023-03-01T14:23:11;15.30;1.00
20231;DHT22;10274;49.022;9.338;2023-03-01T14:25:47;15.40;1.00
20231;DHT22;10274;49.022;9.338;2023-03-01T14:28:16;15.50;1.00
20231;DHT22;10274;49.022;9.338;2023-03-01T14:30:46;15.70;1.00
20231;DHT22;10274;49.022;9.338;2023-03-01T14:33:22;16.10;1.00
20231;DHT22;10274;49.022;9.338;2023-03-01T14:35:55;15.60;1.00
20231;DHT22;10274;49.022;9.338;2023-03-01T14:38:22;15.70;1.00
20231;DHT22;10274;49.022;9.338;2023-03-01T14:40:52;15.60;1.00
20231;DHT22;10274;49.022;9.338;2023-03-01T14:43:23;15.90;1.00
20231;DHT22;10274;49.022;9.338;2023-03-01T14:45:52;15.10;1.00
20231;DHT22;10274;49.022;9.338;2023-03-01T14:48:19;14.80;1.00
20231;DHT22;10274;49.022;9.338;2023-03-01T14:50:46;14.20;1.00
20231;DHT22;10274;49.022;9.338;2023-03-01T14:53:17;14.10;1.00
20231;DHT22;10274;49.022;9.338;2023-03-01T14:55:48;13.50;1.00
20231;DHT22;10274;49.022;9.338;2023-03-01T14:58:19;13.30;1.00
20231;DHT22;10274;49.022;9.338;2023-03-01T15:00:49;13.10;1.00
20231;DHT22;10274;49.022;9.338;2023-03-01T15:03:24;12.00;1.00
20231;DHT22;10274;49.022;9.338;2023-03-01T15:05:52;12.10;1.00
20231;DHT22;10274;49.022;9.338;2023-03-01T15:08:22;12.10;1.00
20231;DHT22;10274;49.022;9.338;2023-03-01T15:10:59;12.10;1.00
20231;DHT22;10274;49.022;9.338;2023-03-01T15:13:29;12.20;1.00
20231;DHT22;10274;49.022;9.338;2023-03-01T15:16:04;11.90;1.00
20231;DHT22;10274;49.022;9.338;2023-03-01T15:18:32;11.70;1.00
20231;DHT22;10274;49.022;9.338;2023-03-01T15:21:08;11.70;1.00
20231;DHT22;10274;49.022;9.338;2023-03-01T15:23:37;11.70;1.00
20231;DHT22;10274;49.022;9.338;2023-03-01T15:26:06;11.70;1.00
20231;DHT22;10274;49.022;9.338;2023-03-01T15:28:34;11.50;1.00
20231;DHT22;10274;49.022;9.338;2023-03-01T15:31:07;10.80;1.00
20231;DHT22;10274;49.022;9.338;2023-03-01T15:33:41;10.60;1.00
20231;DHT22;10274;49.022;9.338;2023-03-01T15:36:35;10.50;1.00
20231;DHT22;10274;49.022;9.338;2023-03-01T15:39:27;10.00;1.00
20231;DHT22;10274;49.022;9.338;2023-03-01T15:41:56;10.10;1.00
20231;DHT22;10274;49.022;9.338;2023-03-01T15:44:26;10.20;1.00
20231;DHT22;10274;49.022;9.338;2023-03-01T15:46:54;10.20;1.00
20231;DHT22;10274;49.022;9.338;2023-03-01T15:49:35;10.10;1.00
20231;DHT22;10274;49.022;9.338;2023-03-01T15:52:03;10.60;1.00
20231;DHT22;10274;49.022;9.338;2023-03-01T15:54:30;10.60;1.00
20231;DHT22;10274;49.022;9.338;2023-03-01T15:56:57;10.70;1.00
20231;DHT22;10274;49.022;9.338;2023-03-01T15:59:24;10.70;1.00
20231;DHT22;10274;49.022;9.338;2023-03-01T16:01:50;10.70;1.00
20231;DHT22;10274;49.022;9.338;2023-03-01T16:04:18;10.40;1.00
20231;DHT22;10274;49.022;9.338;2023-03-01T16:06:50;10.20;1.00
20231;DHT22;10274;49.022;9.338;2023-03-01T16:09:23;10.00;1.00
20231;DHT22;10274;49.022;9.338;2023-03-01T16:11:51;10.10;1.00
20231;DHT22;10274;49.022;9.338;2023-03-01T16:14:18;10.20;1.00
20231;DHT22;10274;49.022;9.338;2023-03-01T16:16:45;10.40;1.00
20231;DHT22;10274;49.022;9.338;2023-03-01T16:19:13;10.20;1.00
20231;DHT22;10274;49.022;9.338;2023-03-01T16:21:40;10.10;1.00
20231;DHT22;10274;49.022;9.338;2023-03-01T16:24:09;9.80;1.00